sensor_id;sensor_type;location;lat;lon;timestamp;pressure;altitude;pressure_sealevel;temperature;humidity
11041;BME280;5573;49.592;8.662;2023-03-22T00:00:24;99669.09;;;12.45;94.29
11041;BME280;5573;49.592;8.662;2023-03-22T00:02:54;99664.72;;;12.61;89.66
11041;BME280;5573;49.592;8.662;2023-03-22T00:05:23;99671.78;;;12.63;89.17
11041;BME280;5573;49.592;8.662;2023-03-22T00:07:51;99662.72;;;12.66;90.77
11041;BME280;5573;49.592;8.662;2023-03-22T00:10:19;99655.25;;;12.55;97.32
11041;BME280;5573;49.592;8.662;2023-03-22T00:12:47;99656.84;;;12.46;93.27
11041;BME280;5573;49.592;8.662;2023-03-22T00:15:15;99655.69;;;12.47;96.05
11041;BME280;5573;49.592;8.662;2023-03-22T00:17:43;99662.75;;;12.48;93.77
11041;BME280;5573;49.592;8.662;2023-03-22T00:20:11;99645.84;;;12.35;92.11
11041;BME280;5573;49.592;8.662;2023-03-22T00:22:40;99650.56;;;12.52;90.84
11041;BME280;5573;49.592;8.662;2023-03-22T00:25:08;99650.56;;;12.45;91.42
11041;BME280;5573;49.592;8.662;2023-03-22T00:27:36;99651.34;;;12.53;89.42
11041;BME280;5573;49.592;8.662;2023-03-22T00:30:06;99650.94;;;12.54;89.11
11041;BME280;5573;49.592;8.662;2023-03-22T00:32:34;99648.16;;;12.58;90.17
11041;BME280;5573;49.592;8.662;2023-03-22T00:35:03;99643.09;;;12.38;91.80
11041;BME280;5573;49.592;8.662;2023-03-22T00:37:31;99649.75;;;12.52;93.25
11041;BME280;5573;49.592;8.662;2023-03-22T00:40:01;99600.16;;;12.30;89.37
11041;BME280;5573;49.592;8.662;2023-03-22T00:42:30;99647.00;;;12.37;93.41
11041;BME280;5573;49.592;8.662;2023-03-22T00:44:57;99638.00;;;12.26;93.55
11041;BME280;5573;49.592;8.662;2023-03-22T00:47:25;99642.66;;;12.47;92.13
11041;BME280;5573;49.592;8.662;2023-03-22T00:49:53;99634.06;;;12.27;94.61
11041;BME280;5573;49.592;8.662;2023-03-22T00:52:21;99629.28;;;12.38;94.60
11041;BME280;5573;49.592;8.662;2023-03-22T00:54:48;99617.09;;;12.29;92.29
11041;BME280;5573;49.592;8.662;2023-03-22T00:57:18;99620.59;;;12.44;93.92
11041;BME280;5573;49.592;8.662;2023-03-22T00:59:46;99615.06;;;12.51;92.46
11041;BME280;5573;49.592;8.662;2023-03-22T01:02:14;99617.09;;;12.36;92.12
11041;BME280;5573;49.592;8.662;2023-03-22T01:04:43;99617.44;;;12.41;91.50
11041;BME280;5573;49.592;8.662;2023-03-22T01:07:12;99607.25;;;12.20;93.62
11041;BME280;5573;49.592;8.662;2023-03-22T01:09:43;99609.56;;;12.44;91.81
11041;BME280;5573;49.592;8.662;2023-03-22T01:12:13;99594.25;;;12.28;93.53
11041;BME280;5573;49.592;8.662;2023-03-22T01:14:43;99602.56;;;12.21;95.43
11041;BME280;5573;49.592;8.662;2023-03-22T01:17:11;99610.81;;;12.28;95.78
11041;BME280;5573;49.592;8.662;2023-03-22T01:19:39;99595.44;;;12.20;94.29
11041;BME280;5573;49.592;8.662;2023-03-22T01:22:07;99592.28;;;12.32;93.58
11041;BME280;5573;49.592;8.662;2023-03-22T01:24:35;99596.19;;;12.38;90.84
11041;BME280;5573;49.592;8.662;2023-03-22T01:27:03;99582.78;;;12.40;92.94
11041;BME280;5573;49.592;8.662;2023-03-22T01:29:31;99589.47;;;12.39;91.35
11041;BME280;5573;49.592;8.662;2023-03-22T01:32:02;99586.72;;;12.39;97.66
11041;BME280;5573;49.592;8.662;2023-03-22T01:34:30;99588.34;;;12.26;92.50
11041;BME280;5573;49.592;8.662;2023-03-22T01:37:00;99581.31;;;12.14;94.70
11041;BME280;5573;49.592;8.662;2023-03-22T01:39:30;99587.53;;;12.33;93.80
11041;BME280;5573;49.592;8.662;2023-03-22T01:42:02;99577.38;;;12.05;97.71
11041;BME280;5573;49.592;8.662;2023-03-22T01:44:31;99574.56;;;12.26;95.68
11041;BME280;5573;49.592;8.662;2023-03-22T01:47:02;99571.03;;;12.29;97.19
11041;BME280;5573;49.592;8.662;2023-03-22T01:49:32;99572.19;;;12.28;93.16
11041;BME280;5573;49.592;8.662;2023-03-22T01:52:04;99547.47;;;11.99;96.23
11041;BME280;5573;49.592;8.662;2023-03-22T01:54:42;99579.25;;;12.36;93.96
11041;BME280;5573;49.592;8.662;2023-03-22T01:57:30;99573.34;;;12.34;93.25
11041;BME280;5573;49.592;8.662;2023-03-22T02:00:07;99581.19;;;12.43;92.95
11041;BME280;5573;49.592;8.662;2023-03-22T02:03:03;99574.97;;;12.17;94.41
11041;BME280;5573;49.592;8.662;2023-03-22T02:05:39;99582.88;;;12.15;94.99
11041;BME280;5573;49.592;8.662;2023-03-22T02:08:07;99589.19;;;12.12;95.75
11041;BME280;5573;49.592;8.662;2023-03-22T02:10:51;99578.97;;;12.02;96.50
11041;BME280;5573;49.592;8.662;2023-03-22T02:13:28;99581.34;;;12.00;96.96
11041;BME280;5573;49.592;8.662;2023-03-22T02:16:28;99580.94;;;11.94;97.43
11041;BME280;5573;49.592;8.662;2023-03-22T02:19:26;99577.00;;;11.88;100.00
11041;BME280;5573;49.592;8.662;2023-03-22T02:22:16;99580.13;;;11.79;97.91
11041;BME280;5573;49.592;8.662;2023-03-22T02:25:19;99577.38;;;11.87;99.21
11041;BME280;5573;49.592;8.662;2023-03-22T02:28:11;99573.06;;;11.93;98.88
11041;BME280;5573;49.592;8.662;2023-03-22T02:31:11;99580.16;;;11.83;99.83
11041;BME280;5573;49.592;8.662;2023-03-22T02:34:10;99565.19;;;11.77;100.00
11041;BME280;5573;49.592;8.662;2023-03-22T02:40:13;99570.69;;;11.73;99.54
11041;BME280;5573;49.592;8.662;2023-03-22T02:42:49;99570.69;;;11.59;99.12
11041;BME280;5573;49.592;8.662;2023-03-22T02:45:23;99571.09;;;11.72;98.94
11041;BME280;5573;49.592;8.662;2023-03-22T02:47:57;99529.00;;;11.60;99.53
11041;BME280;5573;49.592;8.662;2023-03-22T02:50:34;99565.19;;;11.73;97.89
11041;BME280;5573;49.592;8.662;2023-03-22T02:53:09;99559.69;;;11.73;100.00
11041;BME280;5573;49.592;8.662;2023-03-22T02:55:45;99557.69;;;11.85;97.57
11041;BME280;5573;49.592;8.662;2023-03-22T02:58:17;99552.59;;;11.83;98.82
11041;BME280;5573;49.592;8.662;2023-03-22T03:00:51;99551.41;;;11.77;99.77
11041;BME280;5573;49.592;8.662;2023-03-22T03:03:22;99545.91;;;11.73;100.00
11041;BME280;5573;49.592;8.662;2023-03-22T03:05:56;99546.25;;;11.83;98.66
11041;BME280;5573;49.592;8.662;2023-03-22T03:08:25;99549.44;;;11.74;99.59
11041;BME280;5573;49.592;8.662;2023-03-22T03:10:56;99545.88;;;11.84;96.16
11041;BME280;5573;49.592;8.662;2023-03-22T03:13:24;99544.31;;;11.83;100.00
11041;BME280;5573;49.592;8.662;2023-03-22T03:15:56;99554.19;;;11.91;97.22
11041;BME280;5573;49.592;8.662;2023-03-22T03:18:41;99552.97;;;11.85;97.02
11041;BME280;5573;49.592;8.662;2023-03-22T03:21:20;99553.75;;;11.96;97.40
11041;BME280;5573;49.592;8.662;2023-03-22T03:23:53;99549.41;;;11.99;96.37
11041;BME280;5573;49.592;8.662;2023-03-22T03:26:33;99552.19;;;11.74;97.67
11041;BME280;5573;49.592;8.662;2023-03-22T03:29:10;99549.44;;;11.74;98.67
11041;BME280;5573;49.592;8.662;2023-03-22T03:31:45;99561.63;;;11.91;96.68
11041;BME280;5573;49.592;8.662;2023-03-22T03:34:18;99551.41;;;11.98;95.65
11041;BME280;5573;49.592;8.662;2023-03-22T03:36:52;99549.03;;;11.97;94.95
11041;BME280;5573;49.592;8.662;2023-03-22T03:39:25;99545.88;;;11.84;95.73
11041;BME280;5573;49.592;8.662;2023-03-22T03:41:56;99544.72;;;11.89;99.12
11041;BME280;5573;49.592;8.662;2023-03-22T03:44:27;99548.22;;;12.04;95.17
11041;BME280;5573;49.592;8.662;2023-03-22T03:46:56;99541.97;;;11.99;95.43
11041;BME280;5573;49.592;8.662;2023-03-22T03:49:25;99539.59;;;11.94;96.39
11041;BME280;5573;49.592;8.662;2023-03-22T03:51:54;99541.97;;;11.92;97.35
11041;BME280;5573;49.592;8.662;2023-03-22T03:54:22;99533.31;;;11.94;95.51
11041;BME280;5573;49.592;8.662;2023-03-22T03:56:51;99540.78;;;11.90;97.43
11041;BME280;5573;49.592;8.662;2023-03-22T03:59:21;99544.31;;;11.79;99.28
11041;BME280;5573;49.592;8.662;2023-03-22T04:01:50;99535.66;;;11.88;95.36
11041;BME280;5573;49.592;8.662;2023-03-22T04:04:28;99524.25;;;11.65;98.26
11041;BME280;5573;49.592;8.662;2023-03-22T04:07:02;99521.91;;;11.63;97.97
11041;BME280;5573;49.592;8.662;2023-03-22T04:09:34;99531.75;;;11.78;95.79
11041;BME280;5573;49.592;8.662;2023-03-22T04:12:13;99520.72;;;11.78;96.75
11041;BME280;5573;49.592;8.662;2023-03-22T04:14:49;99524.63;;;11.77;96.64
11041;BME280;5573;49.592;8.662;2023-03-22T04:17:22;99514.41;;;11.64;97.85
11041;BME280;5573;49.592;8.662;2023-03-22T04:19:51;99519.94;;;11.60;97.31
11041;BME280;5573;49.592;8.662;2023-03-22T04:22:23;99463.34;;;11.16;98.51
11041;BME280;5573;49.592;8.662;2023-03-22T04:24:51;99512.84;;;11.59;96.96
11041;BME280;5573;49.592;8.662;2023-03-22T04:27:21;99513.25;;;11.68;97.15
11041;BME280;5573;49.592;8.662;2023-03-22T04:30:03;99509.31;;;11.58;98.01
11041;BME280;5573;49.592;8.662;2023-03-22T04:32:50;99507.34;;;11.48;96.57
11041;BME280;5573;49.592;8.662;2023-03-22T04:35:24;99499.91;;;11.34;98.83
11041;BME280;5573;49.592;8.662;2023-03-22T04:37:53;99502.25;;;11.39;97.86
11041;BME280;5573;49.592;8.662;2023-03-22T04:40:21;99496.75;;;11.25;99.85
11041;BME280;5573;49.592;8.662;2023-03-22T04:42:57;99497.16;;;11.45;98.02
11041;BME280;5573;49.592;8.662;2023-03-22T04:46:07;99491.22;;;11.47;100.00
11041;BME280;5573;49.592;8.662;2023-03-22T04:48:45;99489.25;;;11.26;99.36
11041;BME280;5573;49.592;8.662;2023-03-22T04:51:13;99491.63;;;11.38;97.61
11041;BME280;5573;49.592;8.662;2023-03-22T04:54:01;99495.94;;;11.50;96.59
11041;BME280;5573;49.592;8.662;2023-03-22T04:56:29;99493.22;;;11.28;98.56
11041;BME280;5573;49.592;8.662;2023-03-22T04:58:56;99490.06;;;11.30;99.34
11041;BME280;5573;49.592;8.662;2023-03-22T05:01:27;99499.50;;;11.29;98.81
11041;BME280;5573;49.592;8.662;2023-03-22T05:04:07;99497.94;;;10.99;100.00
11041;BME280;5573;49.592;8.662;2023-03-22T05:06:34;99495.16;;;10.88;100.00
11041;BME280;5573;49.592;8.662;2023-03-22T05:09:10;99500.28;;;10.93;100.00
11041;BME280;5573;49.592;8.662;2023-03-22T05:11:38;99488.50;;;10.86;100.00
11041;BME280;5573;49.592;8.662;2023-03-22T05:14:22;99492.00;;;10.83;100.00
11041;BME280;5573;49.592;8.662;2023-03-22T05:16:51;99493.13;;;10.60;100.00
11041;BME280;5573;49.592;8.662;2023-03-22T05:19:19;99500.59;;;10.56;100.00
11041;BME280;5573;49.592;8.662;2023-03-22T05:21:49;99508.47;;;10.61;100.00
11041;BME280;5573;49.592;8.662;2023-03-22T05:24:28;99509.25;;;10.62;100.00
11041;BME280;5573;49.592;8.662;2023-03-22T05:26:56;99479.34;;;10.49;100.00
11041;BME280;5573;49.592;8.662;2023-03-22T05:29:26;99503.38;;;10.63;100.00
11041;BME280;5573;49.592;8.662;2023-03-22T05:32:07;99502.19;;;10.64;100.00
11041;BME280;5573;49.592;8.662;2023-03-22T05:34:35;99504.09;;;10.42;100.00
11041;BME280;5573;49.592;8.662;2023-03-22T05:37:14;99510.81;;;10.48;100.00
11041;BME280;5573;49.592;8.662;2023-03-22T05:39:53;99510.03;;;10.55;100.00
11041;BME280;5573;49.592;8.662;2023-03-22T05:42:29;99521.38;;;10.43;100.00
11041;BME280;5573;49.592;8.662;2023-03-22T05:44:59;99522.97;;;10.51;100.00
11041;BME280;5573;49.592;8.662;2023-03-22T05:47:29;99519.81;;;10.49;100.00
11041;BME280;5573;49.592;8.662;2023-03-22T05:50:12;99482.81;;;10.28;100.00
11041;BME280;5573;49.592;8.662;2023-03-22T05:52:41;99515.94;;;10.64;100.00
11041;BME280;5573;49.592;8.662;2023-03-22T05:55:20;99527.69;;;10.50;100.00
11041;BME280;5573;49.592;8.662;2023-03-22T05:57:53;99533.81;;;10.22;100.00
11041;BME280;5573;49.592;8.662;2023-03-22T06:00:23;99527.63;;;10.32;100.00
11041;BME280;5573;49.592;8.662;2023-03-22T06:03:32;99525.72;;;10.47;100.00
11041;BME280;5573;49.592;8.662;2023-03-22T06:06:18;99529.50;;;10.21;100.00
11041;BME280;5573;49.592;8.662;2023-03-22T06:08:55;99543.72;;;10.30;100.00
11041;BME280;5573;49.592;8.662;2023-03-22T06:11:41;99530.41;;;10.43;100.00
11041;BME280;5573;49.592;8.662;2023-03-22T06:14:09;99526.78;;;10.28;100.00
11041;BME280;5573;49.592;8.662;2023-03-22T06:16:59;99531.88;;;10.23;100.00
11041;BME280;5573;49.592;8.662;2023-03-22T06:19:29;99531.94;;;10.37;100.00
11041;BME280;5573;49.592;8.662;2023-03-22T06:22:00;99535.13;;;10.43;100.00
11041;BME280;5573;49.592;8.662;2023-03-22T06:24:30;99536.75;;;10.58;100.00
11041;BME280;5573;49.592;8.662;2023-03-22T06:26:57;99536.78;;;10.65;100.00
11041;BME280;5573;49.592;8.662;2023-03-22T06:29:26;99536.41;;;10.67;100.00
11041;BME280;5573;49.592;8.662;2023-03-22T06:31:57;99529.28;;;10.55;100.00
11041;BME280;5573;49.592;8.662;2023-03-22T06:34:25;99528.50;;;10.62;100.00
11041;BME280;5573;49.592;8.662;2023-03-22T06:36:55;99529.72;;;10.75;100.00
11041;BME280;5573;49.592;8.662;2023-03-22T06:39:30;99526.22;;;10.89;100.00
11041;BME280;5573;49.592;8.662;2023-03-22T06:41:58;99525.44;;;10.99;100.00
11041;BME280;5573;49.592;8.662;2023-03-22T06:44:27;99527.81;;;11.04;100.00
11041;BME280;5573;49.592;8.662;2023-03-22T06:47:21;99536.41;;;10.81;100.00
11041;BME280;5573;49.592;8.662;2023-03-22T06:50:08;99546.69;;;10.98;100.00
11041;BME280;5573;49.592;8.662;2023-03-22T06:53:16;99545.09;;;10.97;100.00
11041;BME280;5573;49.592;8.662;2023-03-22T06:55:43;99544.31;;;11.04;100.00
11041;BME280;5573;49.592;8.662;2023-03-22T06:58:18;99533.69;;;10.95;100.00
11041;BME280;5573;49.592;8.662;2023-03-22T07:00:45;99538.03;;;11.00;100.00
11041;BME280;5573;49.592;8.662;2023-03-22T07:03:14;99536.47;;;11.17;100.00
11041;BME280;5573;49.592;8.662;2023-03-22T07:05:51;99541.22;;;11.24;100.00
11041;BME280;5573;49.592;8.662;2023-03-22T07:08:20;99547.50;;;11.38;100.00
11041;BME280;5573;49.592;8.662;2023-03-22T07:10:49;99550.66;;;11.48;99.87
11041;BME280;5573;49.592;8.662;2023-03-22T07:13:20;99548.66;;;11.77;97.29
11041;BME280;5573;49.592;8.662;2023-03-22T07:15:54;99547.84;;;11.91;94.63
11041;BME280;5573;49.592;8.662;2023-03-22T07:18:38;99555.34;;;11.97;96.32
11041;BME280;5573;49.592;8.662;2023-03-22T07:21:07;99550.63;;;11.98;97.43
11041;BME280;5573;49.592;8.662;2023-03-22T07:23:40;99554.47;;;12.29;94.27
11041;BME280;5573;49.592;8.662;2023-03-22T07:26:12;99559.91;;;12.51;94.29
11041;BME280;5573;49.592;8.662;2023-03-22T07:28:43;99559.91;;;12.44;94.45
11041;BME280;5573;49.592;8.662;2023-03-22T07:31:13;99550.13;;;12.28;94.37
11041;BME280;5573;49.592;8.662;2023-03-22T07:34:02;99558.44;;;12.17;96.06
11041;BME280;5573;49.592;8.662;2023-03-22T07:36:36;99556.88;;;12.16;94.38
11041;BME280;5573;49.592;8.662;2023-03-22T07:39:09;99575.78;;;12.07;96.33
11041;BME280;5573;49.592;8.662;2023-03-22T07:41:41;99560.88;;;11.69;99.10
11041;BME280;5573;49.592;8.662;2023-03-22T07:44:18;99575.78;;;12.07;99.78
11041;BME280;5573;49.592;8.662;2023-03-22T07:46:59;99569.09;;;12.05;97.16
11041;BME280;5573;49.592;8.662;2023-03-22T07:49:35;99569.44;;;12.35;93.78
11041;BME280;5573;49.592;8.662;2023-03-22T07:52:07;99566.75;;;12.03;94.62
11041;BME280;5573;49.592;8.662;2023-03-22T07:54:37;99564.72;;;12.18;95.72
11041;BME280;5573;49.592;8.662;2023-03-22T07:57:07;99554.00;;;12.49;93.99
11041;BME280;5573;49.592;8.662;2023-03-22T07:59:46;99562.22;;;12.56;91.43
11041;BME280;5573;49.592;8.662;2023-03-22T08:02:14;99569.38;;;12.43;92.65
11041;BME280;5573;49.592;8.662;2023-03-22T08:04:46;99512.03;;;11.84;92.31
11041;BME280;5573;49.592;8.662;2023-03-22T08:07:39;99572.56;;;12.34;92.90
11041;BME280;5573;49.592;8.662;2023-03-22T08:10:10;99563.16;;;12.17;93.21
11041;BME280;5573;49.592;8.662;2023-03-22T08:12:38;99563.94;;;12.17;93.01
11041;BME280;5573;49.592;8.662;2023-03-22T08:15:15;99562.00;;;12.14;92.03
11041;BME280;5573;49.592;8.662;2023-03-22T08:17:43;99563.13;;;12.24;93.80
11041;BME280;5573;49.592;8.662;2023-03-22T08:20:18;99554.22;;;12.83;87.26
11041;BME280;5573;49.592;8.662;2023-03-22T08:22:52;99555.50;;;13.31;85.66
11041;BME280;5573;49.592;8.662;2023-03-22T08:25:27;99561.72;;;13.42;82.21
11041;BME280;5573;49.592;8.662;2023-03-22T08:28:04;99563.34;;;13.36;83.45
11041;BME280;5573;49.592;8.662;2023-03-22T08:30:32;99557.97;;;13.11;84.86
11041;BME280;5573;49.592;8.662;2023-03-22T08:32:59;99555.97;;;13.15;88.80
11041;BME280;5573;49.592;8.662;2023-03-22T08:35:27;99553.59;;;13.17;85.34
11041;BME280;5573;49.592;8.662;2023-03-22T08:37:56;99554.81;;;13.12;86.53
11041;BME280;5573;49.592;8.662;2023-03-22T08:40:34;99548.53;;;13.64;83.76
11041;BME280;5573;49.592;8.662;2023-03-22T08:43:02;99559.41;;;14.20;85.82
11041;BME280;5573;49.592;8.662;2023-03-22T08:45:30;99548.75;;;14.83;79.48
11041;BME280;5573;49.592;8.662;2023-03-22T08:48:06;99548.69;;;14.60;78.48
11041;BME280;5573;49.592;8.662;2023-03-22T08:50:54;99546.69;;;14.91;72.85
11041;BME280;5573;49.592;8.662;2023-03-22T08:53:29;99533.03;;;15.04;77.53
11041;BME280;5573;49.592;8.662;2023-03-22T08:56:18;99544.06;;;15.82;69.93
11041;BME280;5573;49.592;8.662;2023-03-22T08:58:59;99545.38;;;15.97;68.46
11041;BME280;5573;49.592;8.662;2023-03-22T09:01:53;99546.09;;;16.21;67.90
11041;BME280;5573;49.592;8.662;2023-03-22T09:04:21;99532.63;;;16.00;68.47
11041;BME280;5573;49.592;8.662;2023-03-22T09:06:49;99528.06;;;15.42;70.75
11041;BME280;5573;49.592;8.662;2023-03-22T09:09:17;99525.97;;;15.27;73.50
11041;BME280;5573;49.592;8.662;2023-03-22T09:11:49;99518.22;;;14.91;72.65
11041;BME280;5573;49.592;8.662;2023-03-22T09:14:17;99516.19;;;14.95;72.95
11041;BME280;5573;49.592;8.662;2023-03-22T09:16:46;99526.28;;;14.47;77.47
11041;BME280;5573;49.592;8.662;2023-03-22T09:19:14;99512.34;;;14.54;76.71
11041;BME280;5573;49.592;8.662;2023-03-22T09:21:43;99511.78;;;14.97;74.98
11041;BME280;5573;49.592;8.662;2023-03-22T09:24:19;99508.66;;;14.95;73.15
11041;BME280;5573;49.592;8.662;2023-03-22T09:26:53;99515.84;;;15.16;73.76
11041;BME280;5573;49.592;8.662;2023-03-22T09:29:21;99511.88;;;14.90;75.08
11041;BME280;5573;49.592;8.662;2023-03-22T09:31:49;99514.59;;;14.94;77.70
11041;BME280;5573;49.592;8.662;2023-03-22T09:34:24;99516.53;;;14.97;73.82
11041;BME280;5573;49.592;8.662;2023-03-22T09:36:53;99516.47;;;15.00;75.05
11041;BME280;5573;49.592;8.662;2023-03-22T09:39:28;99506.25;;;14.97;74.15
11041;BME280;5573;49.592;8.662;2023-03-22T09:42:02;99507.34;;;15.03;73.86
11041;BME280;5573;49.592;8.662;2023-03-22T09:44:33;99501.69;;;15.34;72.63
11041;BME280;5573;49.592;8.662;2023-03-22T09:47:09;99497.63;;;15.86;70.71
11041;BME280;5573;49.592;8.662;2023-03-22T09:49:41;99502.47;;;16.02;69.06
11041;BME280;5573;49.592;8.662;2023-03-22T09:52:19;99493.38;;;16.01;69.14
11041;BME280;5573;49.592;8.662;2023-03-22T09:54:48;99493.75;;;16.23;68.18
11041;BME280;5573;49.592;8.662;2023-03-22T09:57:24;99499.53;;;15.89;64.88
11041;BME280;5573;49.592;8.662;2023-03-22T09:59:57;99492.38;;;16.12;63.81
11041;BME280;5573;49.592;8.662;2023-03-22T10:02:45;99465.06;;;16.30;63.56
11041;BME280;5573;49.592;8.662;2023-03-22T10:05:20;99491.88;;;16.37;62.46
11041;BME280;5573;49.592;8.662;2023-03-22T10:08:09;99495.50;;;16.14;62.29
11041;BME280;5573;49.592;8.662;2023-03-22T10:10:40;99473.59;;;15.99;63.89
11041;BME280;5573;49.592;8.662;2023-03-22T10:13:15;99484.47;;;16.10;63.06
11041;BME280;5573;49.592;8.662;2023-03-22T10:15:47;99467.03;;;15.46;64.36
11041;BME280;5573;49.592;8.662;2023-03-22T10:18:17;99468.50;;;15.54;64.80
11041;BME280;5573;49.592;8.662;2023-03-22T10:20:49;99413.38;;;15.13;63.53
11041;BME280;5573;49.592;8.662;2023-03-22T10:23:26;99461.75;;;15.32;63.24
11041;BME280;5573;49.592;8.662;2023-03-22T10:25:57;99460.25;;;15.27;66.06
11041;BME280;5573;49.592;8.662;2023-03-22T10:28:31;99462.56;;;15.05;66.33
11041;BME280;5573;49.592;8.662;2023-03-22T10:31:01;99463.19;;;15.16;67.32
11041;BME280;5573;49.592;8.662;2023-03-22T10:33:36;99466.63;;;15.00;69.71
11041;BME280;5573;49.592;8.662;2023-03-22T10:36:08;99453.75;;;15.14;70.54
11041;BME280;5573;49.592;8.662;2023-03-22T10:38:43;99466.50;;;15.31;70.48
11041;BME280;5573;49.592;8.662;2023-03-22T10:41:14;99463.13;;;15.20;70.67
11041;BME280;5573;49.592;8.662;2023-03-22T10:43:47;99455.78;;;15.33;70.09
11041;BME280;5573;49.592;8.662;2023-03-22T10:46:18;99455.66;;;15.40;70.33
11041;BME280;5573;49.592;8.662;2023-03-22T10:48:50;99460.09;;;15.58;68.53
11041;BME280;5573;49.592;8.662;2023-03-22T10:51:24;99448.00;;;15.48;69.57
11041;BME280;5573;49.592;8.662;2023-03-22T10:53:53;99463.03;;;15.71;67.47
11041;BME280;5573;49.592;8.662;2023-03-22T10:56:24;99467.25;;;15.79;66.40
11041;BME280;5573;49.592;8.662;2023-03-22T10:58:54;99463.03;;;15.71;66.60
11041;BME280;5573;49.592;8.662;2023-03-22T11:01:28;99462.94;;;15.54;67.67
11041;BME280;5573;49.592;8.662;2023-03-22T11:03:59;99463.78;;;15.75;67.97
11041;BME280;5573;49.592;8.662;2023-03-22T11:06:28;99452.53;;;16.02;64.41
11041;BME280;5573;49.592;8.662;2023-03-22T11:08:59;99451.06;;;16.17;64.37
11041;BME280;5573;49.592;8.662;2023-03-22T11:11:31;99450.34;;;16.50;62.87
11041;BME280;5573;49.592;8.662;2023-03-22T11:14:05;99453.91;;;16.50;61.64
11041;BME280;5573;49.592;8.662;2023-03-22T11:16:41;99451.78;;;16.38;61.59
11041;BME280;5573;49.592;8.662;2023-03-22T11:19:14;99450.69;;;16.52;62.24
11041;BME280;5573;49.592;8.662;2023-03-22T11:21:44;99436.31;;;16.73;59.47
11041;BME280;5573;49.592;8.662;2023-03-22T11:24:12;99448.16;;;17.10;59.29
11041;BME280;5573;49.592;8.662;2023-03-22T11:26:40;99427.34;;;17.02;58.58
11041;BME280;5573;49.592;8.662;2023-03-22T11:29:15;99432.75;;;17.38;59.24
11041;BME280;5573;49.592;8.662;2023-03-22T11:31:52;99431.84;;;17.58;58.51
11041;BME280;5573;49.592;8.662;2023-03-22T11:34:25;99429.41;;;17.60;56.66
11041;BME280;5573;49.592;8.662;2023-03-22T11:36:53;99422.63;;;17.15;58.47
11041;BME280;5573;49.592;8.662;2023-03-22T11:39:24;99415.75;;;17.20;58.36
11041;BME280;5573;49.592;8.662;2023-03-22T11:41:56;99423.25;;;17.52;59.10
11041;BME280;5573;49.592;8.662;2023-03-22T11:44:31;99418.81;;;17.55;57.33
11041;BME280;5573;49.592;8.662;2023-03-22T11:47:02;99411.06;;;18.04;57.85
11041;BME280;5573;49.592;8.662;2023-03-22T11:49:37;99398.63;;;17.96;57.19
11041;BME280;5573;49.592;8.662;2023-03-22T11:52:08;99407.75;;;17.97;56.49
11041;BME280;5573;49.592;8.662;2023-03-22T11:54:38;99388.66;;;17.53;56.81
11041;BME280;5573;49.592;8.662;2023-03-22T11:57:12;99399.66;;;17.73;55.76
11041;BME280;5573;49.592;8.662;2023-03-22T11:59:47;99403.28;;;17.99;56.48
11041;BME280;5573;49.592;8.662;2023-03-22T12:02:20;99397.59;;;17.90;55.65
11041;BME280;5573;49.592;8.662;2023-03-22T12:04:52;99387.00;;;17.85;57.11
11041;BME280;5573;49.592;8.662;2023-03-22T12:07:23;99383.03;;;17.99;57.54
11041;BME280;5573;49.592;8.662;2023-03-22T12:09:55;99378.72;;;18.62;54.63
11041;BME280;5573;49.592;8.662;2023-03-22T12:12:28;99387.59;;;19.08;53.48
11041;BME280;5573;49.592;8.662;2023-03-22T12:15:02;99382.16;;;18.66;53.27
11041;BME280;5573;49.592;8.662;2023-03-22T12:17:35;99327.28;;;18.28;54.00
11041;BME280;5573;49.592;8.662;2023-03-22T12:20:16;99374.34;;;18.61;53.47
11041;BME280;5573;49.592;8.662;2023-03-22T12:22:48;99357.66;;;18.22;53.43
11041;BME280;5573;49.592;8.662;2023-03-22T12:25:19;99376.72;;;18.37;53.28
11041;BME280;5573;49.592;8.662;2023-03-22T12:27:51;99372.59;;;18.54;53.70
11041;BME280;5573;49.592;8.662;2023-03-22T12:30:24;99353.00;;;18.45;54.39
11041;BME280;5573;49.592;8.662;2023-03-22T12:32:57;99349.50;;;18.79;52.82
11041;BME280;5573;49.592;8.662;2023-03-22T12:35:30;99351.59;;;18.88;52.34
11041;BME280;5573;49.592;8.662;2023-03-22T12:38:17;99350.94;;;18.84;53.68
11041;BME280;5573;49.592;8.662;2023-03-22T12:40:50;99335.00;;;18.84;52.54
11041;BME280;5573;49.592;8.662;2023-03-22T12:43:32;99329.91;;;18.44;53.09
11041;BME280;5573;49.592;8.662;2023-03-22T12:46:04;99332.09;;;18.75;55.31
11041;BME280;5573;49.592;8.662;2023-03-22T12:48:37;99330.47;;;19.13;52.92
11041;BME280;5573;49.592;8.662;2023-03-22T12:51:08;99330.56;;;18.87;52.27
11041;BME280;5573;49.592;8.662;2023-03-22T12:53:37;99336.34;;;18.67;52.60
11041;BME280;5573;49.592;8.662;2023-03-22T12:56:10;99324.81;;;19.03;51.37
11041;BME280;5573;49.592;8.662;2023-03-22T12:58:40;99314.63;;;18.75;51.65
11041;BME280;5573;49.592;8.662;2023-03-22T13:01:19;99310.25;;;18.74;52.71
11041;BME280;5573;49.592;8.662;2023-03-22T13:03:51;99304.97;;;19.45;51.41
11041;BME280;5573;49.592;8.662;2023-03-22T13:06:30;99305.50;;;19.75;50.31
11041;BME280;5573;49.592;8.662;2023-03-22T13:09:10;99303.66;;;19.81;49.59
11041;BME280;5573;49.592;8.662;2023-03-22T13:11:42;99294.72;;;19.64;48.46
11041;BME280;5573;49.592;8.662;2023-03-22T13:14:11;99291.63;;;19.40;49.72
11041;BME280;5573;49.592;8.662;2023-03-22T13:16:50;99291.94;;;19.20;51.44
11041;BME280;5573;49.592;8.662;2023-03-22T13:19:31;99287.41;;;19.14;46.94
11041;BME280;5573;49.592;8.662;2023-03-22T13:22:13;99285.53;;;19.33;46.77
11041;BME280;5573;49.592;8.662;2023-03-22T13:25:05;99283.00;;;19.25;45.58
11041;BME280;5573;49.592;8.662;2023-03-22T13:27:35;99265.81;;;19.05;44.29
11041;BME280;5573;49.592;8.662;2023-03-22T13:30:05;99271.44;;;18.92;45.24
11041;BME280;5573;49.592;8.662;2023-03-22T13:32:46;99261.78;;;18.84;44.06
11041;BME280;5573;49.592;8.662;2023-03-22T13:35:24;99226.16;;;18.79;45.50
11041;BME280;5573;49.592;8.662;2023-03-22T13:38:00;99272.44;;;19.20;46.39
11041;BME280;5573;49.592;8.662;2023-03-22T13:40:33;99271.22;;;19.21;46.55
11041;BME280;5573;49.592;8.662;2023-03-22T13:43:10;99276.66;;;19.25;44.99
11041;BME280;5573;49.592;8.662;2023-03-22T13:46:08;99272.50;;;19.29;44.67
11041;BME280;5573;49.592;8.662;2023-03-22T13:49:12;99263.84;;;19.59;45.62